createdAt,value
2022-09-19T00:01:32.307Z,99324.84
2022-09-19T00:03:36.707Z,99323.92
2022-09-19T00:05:41.000Z,99323.41
2022-09-19T00:07:45.355Z,99324.75
2022-09-19T00:09:49.641Z,99319.73
2022-09-19T00:11:53.945Z,99323.56
2022-09-19T00:13:58.256Z,99324.05
2022-09-19T00:16:02.800Z,99320.56
2022-09-19T00:18:07.299Z,99320.8
2022-09-19T00:20:11.605Z,99320.28
2022-09-19T00:22:15.899Z,99322.03
2022-09-19T00:24:20.233Z,99321.67
2022-09-19T00:26:24.588Z,99321.2
2022-09-19T00:28:28.905Z,99318.23
2022-09-19T00:30:33.252Z,99319.06
2022-09-19T00:32:37.644Z,99319.98
2022-09-19T00:34:41.920Z,99315
2022-09-19T00:36:46.270Z,99314.42
2022-09-19T00:38:50.591Z,99315.59
2022-09-19T00:40:54.899Z,99314.06
2022-09-19T00:42:59.300Z,99313.75
2022-09-19T00:45:03.683Z,99309.05
2022-09-19T00:47:08.066Z,99310.37
2022-09-19T00:49:12.475Z,99310.63
2022-09-19T00:51:16.769Z,99308.52
2022-09-19T00:53:21.043Z,99308.92
2022-09-19T00:55:25.386Z,99318.04
2022-09-19T00:57:29.701Z,99314.25
2022-09-19T00:59:34.065Z,99316.63
2022-09-19T01:01:38.444Z,99317.13
2022-09-19T01:03:42.960Z,99319.06
2022-09-19T01:05:47.320Z,99319.75
2022-09-19T01:07:51.670Z,99317.66
2022-09-19T01:09:56.000Z,99319.59
2022-09-19T01:12:00.309Z,99319.14
2022-09-19T01:14:04.609Z,99325.37
2022-09-19T01:16:09.235Z,99319.78
2022-09-19T01:18:13.822Z,99321.75
2022-09-19T01:20:18.138Z,99323.5
2022-09-19T01:22:22.469Z,99322.86
2022-09-19T01:24:26.855Z,99322.3
2022-09-19T01:26:31.154Z,99323.01
2022-09-19T01:28:35.482Z,99321.74
2022-09-19T01:30:39.778Z,99319.91
2022-09-19T01:32:44.106Z,99320.98
2022-09-19T01:34:48.434Z,99323.72
2022-09-19T01:36:52.703Z,99328.49
2022-09-19T01:38:57.049Z,99322.71
2022-09-19T01:41:01.572Z,99322.73
2022-09-19T01:43:05.898Z,99323.16
2022-09-19T01:45:10.230Z,99320.27
2022-09-19T01:47:14.514Z,99319.5
2022-09-19T01:49:18.827Z,99318.14
2022-09-19T01:51:23.202Z,99318.95
2022-09-19T01:53:27.686Z,99319.02
2022-09-19T01:55:31.998Z,99317.25
2022-09-19T01:57:36.356Z,99317.26
2022-09-19T01:59:40.762Z,99320.53
2022-09-19T02:01:45.297Z,99318.19
2022-09-19T02:03:49.747Z,99316.39
2022-09-19T02:05:54.088Z,99318.38
2022-09-19T02:07:58.366Z,99313.41
2022-09-19T02:10:02.710Z,99316.17
2022-09-19T02:12:07.034Z,99314.66
2022-09-19T02:14:11.311Z,99315.5
2022-09-19T02:16:15.810Z,99315.72
2022-09-19T02:18:20.247Z,99313.01
2022-09-19T02:20:24.571Z,99315.37
2022-09-19T02:22:28.901Z,99311.86
2022-09-19T02:24:33.176Z,99314.41
2022-09-19T02:26:37.524Z,99313.41
2022-09-19T02:28:41.847Z,99313.81
2022-09-19T02:30:46.170Z,99313.41
2022-09-19T02:32:50.486Z,99314.09
2022-09-19T02:34:54.789Z,99318.14
2022-09-19T02:36:59.118Z,99320.03
2022-09-19T02:39:03.437Z,99321.03
2022-09-19T02:41:07.790Z,99323.88
2022-09-19T02:43:12.113Z,99327
2022-09-19T02:45:16.418Z,99327.32
2022-09-19T02:47:20.753Z,99325.47
2022-09-19T02:49:25.156Z,99327
2022-09-19T02:51:29.447Z,99326.98
2022-09-19T02:53:33.766Z,99330.7
2022-09-19T02:55:38.045Z,99332.27
2022-09-19T02:57:42.372Z,99332.18
2022-09-19T02:59:46.665Z,99335.07
2022-09-19T03:01:51.147Z,99334.05
2022-09-19T03:03:55.594Z,99337.88
2022-09-19T03:05:59.907Z,99337.59
2022-09-19T03:08:04.239Z,99332.75
2022-09-19T03:10:08.535Z,99334.67
2022-09-19T03:12:12.847Z,99335.16
2022-09-19T03:14:17.166Z,99342.19
2022-09-19T03:16:21.715Z,99344.48
2022-09-19T03:18:28.081Z,99343.88
2022-09-19T03:20:32.356Z,99343.97
2022-09-19T03:22:36.698Z,99347.2
2022-09-19T03:24:40.981Z,99349.12
2022-09-19T03:26:45.284Z,99353.49
2022-09-19T03:28:49.620Z,99355.34
2022-09-19T03:30:53.928Z,99352.49
2022-09-19T03:32:58.270Z,99350.45
2022-09-19T03:35:02.584Z,99354.25
2022-09-19T03:37:06.912Z,99353.89
2022-09-19T03:39:11.251Z,99354.25
2022-09-19T03:41:15.622Z,99351.78
2022-09-19T03:43:19.934Z,99352.16
2022-09-19T03:45:24.307Z,99353.34
2022-09-19T03:47:28.607Z,99354.76
2022-09-19T03:49:33.047Z,99357.56
2022-09-19T03:51:37.347Z,99362.09
2022-09-19T03:53:41.632Z,99362.66
2022-09-19T03:55:45.991Z,99362.77
2022-09-19T03:57:50.291Z,99360.89
2022-09-19T03:59:54.595Z,99358.49
2022-09-19T04:01:58.977Z,99367.16
2022-09-19T04:04:03.604Z,99365.95
2022-09-19T04:06:08.060Z,99370.52
2022-09-19T04:08:12.435Z,99367.23
2022-09-19T04:10:16.714Z,99371.89
2022-09-19T04:12:21.025Z,99367.45
2022-09-19T04:14:25.341Z,99376.78
2022-09-19T04:16:29.847Z,99379.56
2022-09-19T04:18:34.458Z,99382.09
2022-09-19T04:20:38.910Z,99382.25
2022-09-19T04:22:43.234Z,99386.03
2022-09-19T04:24:47.549Z,99387.38
2022-09-19T04:26:51.862Z,99391.42
2022-09-19T04:28:56.274Z,99398.28
2022-09-19T04:31:00.549Z,99396.92
2022-09-19T04:33:04.905Z,99400.11
2022-09-19T04:35:09.248Z,99402.25
2022-09-19T04:37:13.589Z,99403.95
2022-09-19T04:39:17.907Z,99408.98
2022-09-19T04:41:22.214Z,99413.2
2022-09-19T04:43:26.509Z,99415.64
2022-09-19T04:45:31.073Z,99412.84
2022-09-19T04:47:35.512Z,99419.57
2022-09-19T04:49:39.869Z,99417.17
2022-09-19T04:51:44.281Z,99420.01
2022-09-19T04:53:48.604Z,99426.22
2022-09-19T04:55:52.919Z,99430.16
2022-09-19T04:57:57.241Z,99427.19
2022-09-19T05:00:01.507Z,99428.18
2022-09-19T05:02:05.946Z,99431.58
2022-09-19T05:04:10.661Z,99431.7
2022-09-19T05:06:14.948Z,99436.84
2022-09-19T05:08:19.292Z,99438.03
2022-09-19T05:10:23.549Z,99438.49
2022-09-19T05:12:27.810Z,99439.06
2022-09-19T05:14:32.161Z,99443.45
2022-09-19T05:16:36.729Z,99439.06
2022-09-19T05:18:41.183Z,99443.53
2022-09-19T05:20:45.480Z,99444.55
2022-09-19T05:22:49.787Z,99448.55
2022-09-19T05:24:54.059Z,99443.58
2022-09-19T05:26:58.384Z,99446.16
2022-09-19T05:29:02.650Z,99450.42
2022-09-19T05:31:07.076Z,99451.4
2022-09-19T05:33:11.499Z,99454.5
2022-09-19T05:35:15.807Z,99453.69
2022-09-19T05:37:20.183Z,99453.35
2022-09-19T05:39:24.508Z,99454.69
2022-09-19T05:41:28.827Z,99457.23
2022-09-19T05:43:33.132Z,99458.22
2022-09-19T05:45:37.454Z,99464.51
2022-09-19T05:47:41.723Z,99473.3
2022-09-19T05:49:46.082Z,99474.03
2022-09-19T05:51:50.376Z,99474.25
2022-09-19T05:53:54.949Z,99472.25
2022-09-19T05:55:59.263Z,99477.16
2022-09-19T05:58:03.554Z,99478.91
2022-09-19T06:00:07.869Z,99475.1
2022-09-19T06:02:12.467Z,99479.2
2022-09-19T06:04:16.872Z,99481.48
2022-09-19T06:06:21.198Z,99486.09
2022-09-19T06:08:25.520Z,99485.9
2022-09-19T06:10:29.821Z,99489.8
2022-09-19T06:12:34.115Z,99488.64
2022-09-19T06:14:38.412Z,99488.44
2022-09-19T06:16:42.926Z,99489.8
2022-09-19T06:18:47.997Z,99489
2022-09-19T06:20:52.391Z,99487.68
2022-09-19T06:22:56.719Z,99495.19
2022-09-19T06:25:01.049Z,99492.79
2022-09-19T06:27:05.377Z,99498.83
2022-09-19T06:29:10.233Z,99493.36
2022-09-19T06:31:15.197Z,99498.16
2022-09-19T06:33:19.655Z,99502.45
2022-09-19T06:35:23.961Z,99502.09
2022-09-19T06:37:28.353Z,99506.28
2022-09-19T06:39:32.667Z,99507.64
2022-09-19T06:41:36.935Z,99506.69
2022-09-19T06:43:41.161Z,99512.24
2022-09-19T06:45:45.455Z,99515.15
2022-09-19T06:47:49.843Z,99515.68
2022-09-19T06:49:54.144Z,99515.55
2022-09-19T06:51:58.447Z,99517.62
2022-09-19T06:54:02.779Z,99521.41
2022-09-19T06:56:07.088Z,99519.95
2022-09-19T06:58:11.408Z,99521.15
2022-09-19T07:00:15.745Z,99527.39
2022-09-19T07:02:20.234Z,99530.28
2022-09-19T07:04:24.676Z,99531.09
2022-09-19T07:06:28.975Z,99533.73
2022-09-19T07:08:33.313Z,99530.22
2022-09-19T07:10:37.664Z,99539.38
2022-09-19T07:12:41.971Z,99543.69
2022-09-19T07:14:46.326Z,99541.39
2022-09-19T07:16:50.743Z,99544.44
2022-09-19T07:18:55.071Z,99542.86
2022-09-19T07:20:59.482Z,99543.25
2022-09-19T07:23:03.796Z,99547.8
2022-09-19T07:25:18.986Z,99550.92
2022-09-19T07:27:23.418Z,99556.2
2022-09-19T07:29:27.719Z,99559.02
2022-09-19T07:31:32.205Z,99560.37
2022-09-19T07:33:36.614Z,99560.63
2022-09-19T07:35:40.945Z,99556.88
2022-09-19T07:37:45.270Z,99563.47
2022-09-19T07:40:08.941Z,99567.18
2022-09-19T07:42:16.442Z,99568.2
2022-09-19T07:44:21.292Z,99571.61
2022-09-19T07:46:25.805Z,99567.75
2022-09-19T07:48:30.226Z,99570.88
2022-09-19T07:50:34.544Z,99575.38
2022-09-19T07:52:38.914Z,99572.38
2022-09-19T07:54:43.247Z,99577.34
2022-09-19T07:56:47.580Z,99581.39
2022-09-19T07:58:51.993Z,99576.67
2022-09-19T08:00:56.521Z,99582.27
2022-09-19T08:03:00.958Z,99582.41
2022-09-19T08:05:05.235Z,99581.45
2022-09-19T08:07:09.553Z,99589.31
2022-09-19T08:09:13.875Z,99593.59
2022-09-19T08:11:18.206Z,99595.48
2022-09-19T08:13:22.520Z,99596.44
2022-09-19T08:15:26.878Z,99601.13
2022-09-19T08:17:31.221Z,99602
2022-09-19T08:19:35.564Z,99604.38
2022-09-19T08:21:39.846Z,99609.59
2022-09-19T08:23:44.261Z,99612.85
2022-09-19T08:25:48.984Z,99610.98
2022-09-19T08:27:53.314Z,99611.05
2022-09-19T08:29:57.621Z,99611.7
2022-09-19T08:32:02.071Z,99609.39
2022-09-19T08:34:06.715Z,99612.45
2022-09-19T08:36:11.090Z,99614.69
2022-09-19T08:38:15.390Z,99621.08
2022-09-19T08:40:20.003Z,99617.6
2022-09-19T08:42:24.581Z,99622.01
2022-09-19T08:44:28.978Z,99623.16
2022-09-19T08:46:33.301Z,99623.48
2022-09-19T08:48:37.596Z,99622.28
2022-09-19T08:50:41.927Z,99624.06
2022-09-19T08:52:46.214Z,99623.88
2022-09-19T08:54:50.527Z,99625.48
2022-09-19T08:56:54.911Z,99626.86
2022-09-19T08:58:59.210Z,99629.38
2022-09-19T09:01:03.722Z,99626.48
2022-09-19T09:03:20.806Z,99629.8
2022-09-19T09:05:27.703Z,99629.42
2022-09-19T09:07:32.012Z,99632.23
2022-09-19T09:09:39.463Z,99633.19
2022-09-19T09:11:43.826Z,99640.51
2022-09-19T09:14:01.148Z,99640.98
2022-09-19T09:16:05.782Z,99640.58
2022-09-19T09:18:10.235Z,99644.15
2022-09-19T09:20:14.634Z,99644.22
2022-09-19T09:22:19.037Z,99651.88
2022-09-19T09:24:35.347Z,99650.09
2022-09-19T09:26:39.992Z,99656.27
2022-09-19T09:28:44.341Z,99647.06
2022-09-19T09:30:48.678Z,99651.88
2022-09-19T09:32:53.002Z,99652.06
2022-09-19T09:34:57.302Z,99655.63
2022-09-19T09:37:01.595Z,99653.58
2022-09-19T09:39:08.102Z,99656.73
2022-09-19T09:41:12.775Z,99655.63
2022-09-19T09:43:17.136Z,99655.24
2022-09-19T09:45:21.435Z,99657.28
2022-09-19T09:47:25.755Z,99664.95
2022-09-19T09:49:31.914Z,99669.91
2022-09-19T09:51:36.217Z,99662.81
2022-09-19T09:53:40.857Z,99667.31
2022-09-19T09:55:45.166Z,99662.81
2022-09-19T09:57:54.951Z,99667.52
2022-09-19T09:59:59.247Z,99679.02
2022-09-19T10:02:03.806Z,99675.48
2022-09-19T10:04:08.570Z,99673.53
2022-09-19T10:06:12.867Z,99677.27
2022-09-19T10:08:17.250Z,99680.48
2022-09-19T10:10:21.540Z,99684.76
2022-09-19T10:13:00.738Z,99682.99
2022-09-19T10:15:09.248Z,99687.04
2022-09-19T10:17:13.574Z,99687.78
2022-09-19T10:19:17.927Z,99690.7
2022-09-19T10:21:22.301Z,99685.42
2022-09-19T10:23:26.608Z,99687.89
2022-09-19T10:25:31.027Z,99691.26
2022-09-19T10:27:35.380Z,99695.39
2022-09-19T10:29:39.674Z,99693.34
2022-09-19T10:31:44.142Z,99689.88
2022-09-19T10:33:48.994Z,99692.07
2022-09-19T10:35:57.279Z,99697.05
2022-09-19T10:38:01.641Z,99696.98
2022-09-19T10:40:06.266Z,99701.71
2022-09-19T10:42:10.752Z,99697.84
2022-09-19T10:44:15.081Z,99705.93
2022-09-19T10:46:19.523Z,99703.59
2022-09-19T10:48:23.997Z,99703.19
2022-09-19T10:50:28.422Z,99703.72
2022-09-19T10:52:52.699Z,99706.74
2022-09-19T10:54:57.359Z,99704.38
2022-09-19T10:57:01.909Z,99707.02
2022-09-19T10:59:06.265Z,99704.14
2022-09-19T11:01:10.953Z,99698.64
2022-09-19T11:03:15.501Z,99708.01
2022-09-19T11:05:20.132Z,99703.7
2022-09-19T11:07:25.229Z,99712.63
2022-09-19T11:09:29.652Z,99715.65
2022-09-19T11:11:34.152Z,99706.81
2022-09-19T11:13:38.725Z,99710.71
2022-09-19T11:15:43.210Z,99707.05
2022-09-19T11:17:47.565Z,99707.91
2022-09-19T11:19:51.938Z,99707.45
2022-09-19T11:21:56.330Z,99713.08
2022-09-19T11:24:00.656Z,99706.61
2022-09-19T11:26:05.180Z,99707.24
2022-09-19T11:28:09.556Z,99706.29
2022-09-19T11:30:13.954Z,99707.33
2022-09-19T11:32:52.343Z,99712.68
2022-09-19T11:35:23.461Z,99708.93
2022-09-19T11:37:31.651Z,99719.86
2022-09-19T11:39:52.787Z,99714.15
2022-09-19T11:41:59.151Z,99718.88
2022-09-19T11:44:03.498Z,99713.77
2022-09-19T11:46:08.075Z,99712.84
2022-09-19T11:48:12.531Z,99716.17
2022-09-19T11:50:17.203Z,99710.96
2022-09-19T11:52:25.852Z,99707.3
2022-09-19T11:54:30.165Z,99713.46
2022-09-19T11:56:34.608Z,99709.21
2022-09-19T11:58:38.993Z,99710.45
2022-09-19T12:00:43.495Z,99715.61
2022-09-19T12:02:51.000Z,99717.03
2022-09-19T12:04:55.475Z,99715.48
2022-09-19T12:06:59.833Z,99717.42
2022-09-19T12:09:04.576Z,99714.95
2022-09-19T12:11:09.020Z,99713.42
2022-09-19T12:13:18.231Z,99721.11
2022-09-19T12:15:22.855Z,99716.66
2022-09-19T12:17:27.419Z,99718.06
2022-09-19T12:19:31.910Z,99711.17
2022-09-19T12:21:36.229Z,99710.8
2022-09-19T12:23:40.590Z,99710.75
2022-09-19T12:25:44.958Z,99710.81
2022-09-19T12:27:49.394Z,99707.88
2022-09-19T12:29:53.838Z,99707.52
2022-09-19T12:31:58.440Z,99707.19
2022-09-19T12:34:04.040Z,99706.27
2022-09-19T12:36:08.665Z,99708.2
2022-09-19T12:38:13.212Z,99707.7
2022-09-19T12:40:17.897Z,99704.19
2022-09-19T12:42:22.740Z,99699.95
2022-09-19T12:44:27.801Z,99695.94
2022-09-19T12:46:32.468Z,99702.43
2022-09-19T12:48:37.038Z,99705.12
2022-09-19T12:50:41.642Z,99708.08
2022-09-19T12:52:46.231Z,99702.18
2022-09-19T12:54:50.739Z,99703.86
2022-09-19T12:56:55.281Z,99704.66
2022-09-19T12:58:59.883Z,99707.27
2022-09-19T13:01:10.236Z,99706.17
2022-09-19T13:03:14.804Z,99709.56
2022-09-19T13:05:19.347Z,99707.95
2022-09-19T13:07:23.921Z,99710.91
2022-09-19T13:09:34.803Z,99710.2
2022-09-19T13:11:39.655Z,99714.48
2022-09-19T13:13:44.283Z,99714.45
2022-09-19T13:15:48.888Z,99715.62
2022-09-19T13:17:53.414Z,99714.15
2022-09-19T13:19:57.915Z,99712.78
2022-09-19T13:22:02.876Z,99722.22
2022-09-19T13:24:07.489Z,99716.92
2022-09-19T13:26:12.006Z,99719
2022-09-19T13:28:16.730Z,99720.69
2022-09-19T13:30:21.238Z,99726.04
2022-09-19T13:32:25.756Z,99726.88
2022-09-19T13:34:30.269Z,99724.63
2022-09-19T13:36:34.802Z,99728.3
2022-09-19T13:38:39.518Z,99726.73
2022-09-19T13:40:44.163Z,99737.27
2022-09-19T13:42:49.000Z,99730.36
2022-09-19T13:44:53.762Z,99736.73
2022-09-19T13:46:58.315Z,99737.84
2022-09-19T13:49:03.199Z,99734.02
2022-09-19T13:51:07.734Z,99739.09
2022-09-19T13:53:12.302Z,99739.33
2022-09-19T13:55:16.857Z,99740.77
2022-09-19T13:57:21.769Z,99740.3
2022-09-19T13:59:26.310Z,99743.91
2022-09-19T14:01:31.133Z,99742.12
2022-09-19T14:03:35.828Z,99737.6
2022-09-19T14:05:40.337Z,99737.84
2022-09-19T14:11:21.232Z,99743.2
2022-09-19T14:13:26.127Z,99745.42
2022-09-19T14:15:30.793Z,99751.34
2022-09-19T14:17:35.442Z,99753.45
2022-09-19T14:19:40.099Z,99753.47
2022-09-19T14:21:44.671Z,99751.17
2022-09-19T14:23:49.185Z,99752.84
2022-09-19T14:25:53.637Z,99747.9
2022-09-19T14:27:58.243Z,99751.01
2022-09-19T14:30:02.814Z,99745.95
2022-09-19T14:32:07.554Z,99749.42
2022-09-19T14:34:12.535Z,99748.89
2022-09-19T14:36:17.054Z,99745.4
2022-09-19T14:38:21.677Z,99746.16
2022-09-19T14:40:26.373Z,99749.59
2022-09-19T14:42:31.242Z,99751.96
2022-09-19T14:44:35.976Z,99750.66
2022-09-19T14:46:40.934Z,99755.98
2022-09-19T14:48:45.563Z,99756.73
2022-09-19T14:50:50.223Z,99756.84
2022-09-19T14:52:54.718Z,99758.02
2022-09-19T14:54:59.206Z,99758.13
2022-09-19T14:57:03.757Z,99760.48
2022-09-19T14:59:08.241Z,99763.97
2022-09-19T15:01:12.981Z,99759.66
2022-09-19T15:03:17.683Z,99757.25
2022-09-19T15:05:22.288Z,99760.04
2022-09-19T15:07:26.769Z,99764.27
2022-09-19T15:09:31.249Z,99759.3
2022-09-19T15:11:35.826Z,99757.69
2022-09-19T15:13:40.316Z,99759.53
2022-09-19T15:15:44.816Z,99750.02
2022-09-19T15:17:49.362Z,99747.87
2022-09-19T15:19:53.996Z,99747.92
2022-09-19T15:21:58.488Z,99747.02
2022-09-19T15:24:03.411Z,99749.58
2022-09-19T15:26:08.162Z,99748.83
2022-09-19T15:28:12.718Z,99748.49
2022-09-19T15:30:17.221Z,99752.88
2022-09-19T15:32:21.806Z,99755.83
2022-09-19T15:34:26.291Z,99756.06
2022-09-19T15:36:30.790Z,99757.13
2022-09-19T15:38:35.635Z,99759.56
2022-09-19T15:40:40.429Z,99761.91
2022-09-19T15:42:45.056Z,99761.16
2022-09-19T15:44:49.600Z,99763.97
2022-09-19T15:46:54.121Z,99762.53
2022-09-19T15:48:59.093Z,99764.85
2022-09-19T15:51:03.973Z,99765.06
2022-09-19T15:53:08.476Z,99767.7
2022-09-19T15:55:13.026Z,99768.94
2022-09-19T15:57:17.521Z,99762.91
2022-09-19T15:59:22.035Z,99769.46
2022-09-19T16:01:26.694Z,99778.4
2022-09-19T16:03:32.937Z,99781.13
2022-09-19T16:05:37.494Z,99782.31
2022-09-19T16:07:42.039Z,99786.75
2022-09-19T16:09:46.633Z,99790
2022-09-19T16:11:51.270Z,99794.02
2022-09-19T16:13:55.748Z,99793.3
2022-09-19T16:16:00.440Z,99788.99
2022-09-19T16:18:05.084Z,99791.64
2022-09-19T16:20:10.098Z,99792.45
2022-09-19T16:22:14.697Z,99798.33
2022-09-19T16:24:20.189Z,99801.51
2022-09-19T16:26:24.855Z,99798.46
2022-09-19T16:28:29.331Z,99801.45
2022-09-19T16:30:33.864Z,99804.88
2022-09-19T16:32:38.436Z,99805.56
2022-09-19T16:34:42.929Z,99808.93
2022-09-19T16:36:47.438Z,99811.75
2022-09-19T16:38:51.965Z,99817.14
2022-09-19T16:40:56.487Z,99819.34
2022-09-19T16:43:01.111Z,99820.34
2022-09-19T16:45:05.583Z,99821.45
2022-09-19T16:47:10.133Z,99826.96
2022-09-19T16:49:14.669Z,99827.26
2022-09-19T16:51:19.290Z,99832.77
2022-09-19T16:53:23.870Z,99833.39
2022-09-19T16:55:28.390Z,99833.86
2022-09-19T16:57:32.953Z,99836.35
2022-09-19T16:59:37.424Z,99840.52
2022-09-19T17:01:41.929Z,99838.38
2022-09-19T17:03:50.920Z,99837.42
2022-09-19T17:05:55.579Z,99837.39
2022-09-19T17:08:06.615Z,99840.84
2022-09-19T17:10:11.493Z,99840.75
2022-09-19T17:12:16.070Z,99845.7
2022-09-19T17:14:20.580Z,99846.36
2022-09-19T17:16:25.295Z,99849.8
2022-09-19T17:18:30.056Z,99853.36
2022-09-19T17:20:34.583Z,99854.22
2022-09-19T17:22:39.098Z,99859.48
2022-09-19T17:24:43.602Z,99861.27
2022-09-19T17:26:48.065Z,99858.88
2022-09-19T17:28:52.661Z,99862.03
2022-09-19T17:30:57.332Z,99863.38
2022-09-19T17:33:05.496Z,99867.67
2022-09-19T17:35:10.024Z,99874.55
2022-09-19T17:37:14.533Z,99873.64
2022-09-19T17:39:19.059Z,99872.02
2022-09-19T17:41:23.691Z,99877.53
2022-09-19T17:43:28.190Z,99881.1
2022-09-19T17:45:32.847Z,99880.61
2022-09-19T17:47:45.649Z,99885.41
2022-09-19T17:49:50.450Z,99889.82
2022-09-19T17:51:55.146Z,99890.27
2022-09-19T17:53:59.838Z,99897.31
2022-09-19T17:56:04.239Z,99903.47
2022-09-19T17:58:08.713Z,99904.36
2022-09-19T18:00:13.128Z,99909.6
2022-09-19T18:02:17.771Z,99910.06
2022-09-19T18:04:22.205Z,99913.05
2022-09-19T18:06:26.550Z,99919.58
2022-09-19T18:08:30.888Z,99921.48
2022-09-19T18:10:35.604Z,99925.53
2022-09-19T18:12:40.218Z,99925.2
2022-09-19T18:14:44.825Z,99926.66
2022-09-19T18:16:49.723Z,99926.44
2022-09-19T18:18:54.738Z,99926.39
2022-09-19T18:20:59.227Z,99932.16
2022-09-19T18:23:03.764Z,99930.59
2022-09-19T18:25:08.192Z,99930.78
2022-09-19T18:27:12.549Z,99937.48
2022-09-19T18:29:17.019Z,99931.27
2022-09-19T18:31:21.769Z,99933.84
2022-09-19T18:33:26.465Z,99937.27
2022-09-19T18:35:31.034Z,99938.6
2022-09-19T18:37:35.517Z,99940.97
2022-09-19T18:39:39.950Z,99948.5
2022-09-19T18:41:44.461Z,99948.56
2022-09-19T18:43:48.923Z,99948.63
2022-09-19T18:45:53.459Z,99958.4
2022-09-19T18:47:57.951Z,99958.27
2022-09-19T18:50:02.376Z,99967.59
2022-09-19T18:52:06.749Z,99968.28
2022-09-19T18:54:11.156Z,99968.63
2022-09-19T18:56:15.696Z,99969.47
2022-09-19T18:58:20.100Z,99971.58
2022-09-19T19:00:24.487Z,99980.37
2022-09-19T19:02:29.351Z,99980.34
2022-09-19T19:04:34.087Z,99983.59
2022-09-19T19:06:38.509Z,99972.05
2022-09-19T19:08:43.037Z,99971.88
2022-09-19T19:10:47.665Z,99981.92
2022-09-19T19:12:54.244Z,99981.98
2022-09-19T19:14:58.650Z,99979.33
2022-09-19T19:17:03.254Z,99974.64
2022-09-19T19:19:08.233Z,99982.91
2022-09-19T19:21:12.655Z,99975.23
2022-09-19T19:23:17.088Z,99983.07
2022-09-19T19:25:21.489Z,99982.04
2022-09-19T19:27:25.886Z,99987.53
2022-09-19T19:29:30.222Z,99990.1
2022-09-19T19:31:34.789Z,99997.34
2022-09-19T19:33:39.394Z,99996.52
2022-09-19T19:35:43.844Z,99993.63
2022-09-19T19:37:48.216Z,99996.63
2022-09-19T19:39:52.616Z,99993.34
2022-09-19T19:41:57.123Z,99993.83
2022-09-19T19:44:01.529Z,99992.43
2022-09-19T19:46:12.773Z,99994.91
2022-09-19T19:48:17.582Z,99996.14
2022-09-19T19:50:21.926Z,99993.56
2022-09-19T19:52:26.291Z,99995.17
2022-09-19T19:54:30.638Z,99993.08
2022-09-19T19:56:34.952Z,99991.61
2022-09-19T19:58:39.356Z,99990.97
2022-09-19T20:00:43.880Z,99995.72
2022-09-19T20:02:48.336Z,99992.39
2022-09-19T20:04:52.718Z,99995.34
2022-09-19T20:06:57.222Z,99996.78
2022-09-19T20:09:02.544Z,100003.33
2022-09-19T20:11:07.003Z,100002.16
2022-09-19T20:13:11.402Z,100007.73
2022-09-19T20:15:15.868Z,100001.53
2022-09-19T20:17:20.288Z,100000.17
2022-09-19T20:19:24.658Z,99997.69
2022-09-19T20:21:29.073Z,99997.52
2022-09-19T20:23:33.660Z,99996
2022-09-19T20:25:38.233Z,100000.06
2022-09-19T20:27:42.617Z,99996.41
2022-09-19T20:29:47.001Z,99995.59
2022-09-19T20:31:51.770Z,99994.66
2022-09-19T20:33:56.382Z,99995.26
2022-09-19T20:36:05.371Z,99998.39
2022-09-19T20:38:09.768Z,99994.86
2022-09-19T20:40:14.339Z,99998.56
2022-09-19T20:42:19.383Z,99997.26
2022-09-19T20:44:23.864Z,99991.56
2022-09-19T20:46:28.206Z,99992.78
2022-09-19T20:48:32.651Z,99997.81
2022-09-19T20:50:37.093Z,99998.42
2022-09-19T20:52:41.515Z,99994.33
2022-09-19T20:54:45.986Z,99997.45
2022-09-19T20:56:50.794Z,99996.59
2022-09-19T20:58:55.381Z,99996.56
2022-09-19T21:00:59.902Z,100003.84
2022-09-19T21:03:04.493Z,100009.42
2022-09-19T21:05:08.860Z,100011.95
2022-09-19T21:07:13.286Z,100012.94
2022-09-19T21:09:17.694Z,100015.81
2022-09-19T21:11:22.089Z,100021.03
2022-09-19T21:13:26.525Z,100019.03
2022-09-19T21:15:30.909Z,100019.94
2022-09-19T21:17:35.310Z,100018.31
2022-09-19T21:19:39.711Z,100017.28
2022-09-19T21:21:44.117Z,100019.78
2022-09-19T21:23:48.578Z,100014.47
2022-09-19T21:25:52.985Z,100017.92
2022-09-19T21:27:57.411Z,100014.53
2022-09-19T21:30:01.812Z,100014.13
2022-09-19T21:32:06.459Z,100016.64
2022-09-19T21:34:11.034Z,100015.39
2022-09-19T21:36:15.440Z,100017.75
2022-09-19T21:38:19.790Z,100022.27
2022-09-19T21:40:24.319Z,100022.01
2022-09-19T21:42:28.775Z,100021.81
2022-09-19T21:44:33.140Z,100023.53
2022-09-19T21:46:37.570Z,100021.67
2022-09-19T21:48:41.977Z,100023.61
2022-09-19T21:50:46.394Z,100020.59
2022-09-19T21:52:50.782Z,100023.09
2022-09-19T21:54:57.393Z,100030.75
2022-09-19T21:57:06.380Z,100030.94
2022-09-19T21:59:10.779Z,100030.94
2022-09-19T22:01:15.359Z,100029.31
2022-09-19T22:03:20.135Z,100028.8
2022-09-19T22:05:24.536Z,100032.81
2022-09-19T22:07:28.930Z,100037.36
2022-09-19T22:09:33.370Z,100034.47
2022-09-19T22:11:37.756Z,100042.06
2022-09-19T22:13:42.145Z,100040.98
2022-09-19T22:15:46.522Z,100037.55
2022-09-19T22:17:50.934Z,100036.44
2022-09-19T22:19:55.285Z,100033.52
2022-09-19T22:21:59.636Z,100027.47
2022-09-19T22:24:04.076Z,100024.2
2022-09-19T22:26:08.475Z,100026.36
2022-09-19T22:28:12.867Z,100029.67
2022-09-19T22:30:17.275Z,100037.31
2022-09-19T22:32:21.652Z,100030.22
2022-09-19T22:34:26.056Z,100030.66
2022-09-19T22:36:30.532Z,100033.75
2022-09-19T22:38:35.445Z,100029.95
2022-09-19T22:40:40.094Z,100031.86
2022-09-19T22:42:44.633Z,100036.39
2022-09-19T22:44:48.999Z,100034.33
2022-09-19T22:46:53.439Z,100040.86
2022-09-19T22:48:57.822Z,100035.36
2022-09-19T22:51:02.174Z,100037.39
2022-09-19T22:53:06.562Z,100042.39
2022-09-19T22:55:10.933Z,100044.86
2022-09-19T22:57:15.313Z,100047.13
2022-09-19T22:59:19.654Z,100047.38
2022-09-19T23:01:24.034Z,100046.11
2022-09-19T23:03:28.561Z,100045.44
2022-09-19T23:05:33.227Z,100046.47
2022-09-19T23:07:37.760Z,100044.64
2022-09-19T23:09:42.116Z,100049.47
2022-09-19T23:11:46.548Z,100052.13
2022-09-19T23:13:51.012Z,100048.73
2022-09-19T23:15:55.527Z,100049.75
2022-09-19T23:18:00.070Z,100053.25
2022-09-19T23:20:04.487Z,100057.95
2022-09-19T23:22:09.054Z,100059.77
2022-09-19T23:24:13.457Z,100060.72
2022-09-19T23:26:17.829Z,100057.43
2022-09-19T23:28:22.256Z,100055.56
2022-09-19T23:30:26.681Z,100055.91
2022-09-19T23:32:31.119Z,100059.59
2022-09-19T23:34:35.528Z,100064.28
2022-09-19T23:36:39.942Z,100065.88
2022-09-19T23:38:44.370Z,100067.98
2022-09-19T23:40:48.864Z,100071.63
2022-09-19T23:42:53.262Z,100073.64
2022-09-19T23:44:57.674Z,100070.45
2022-09-19T23:47:02.030Z,100069.7
2022-09-19T23:49:06.696Z,100070.73
2022-09-19T23:51:11.516Z,100069.7
2022-09-19T23:53:15.902Z,100077.05
2022-09-19T23:55:20.304Z,100081.91
2022-09-19T23:57:24.703Z,100079.16
2022-09-19T23:59:29.138Z,100084.09
